sensor_id;sensor_type;location;lat;lon;timestamp;P1;durP1;ratioP1;P2;durP2;ratioP2
83632;SDS011;73595;53.084;6.696;2024-03-17T00:00:21;16.25;;;4.13;;
83632;SDS011;73595;53.084;6.696;2024-03-17T00:02:47;18.17;;;4.10;;
83632;SDS011;73595;53.084;6.696;2024-03-17T00:05:13;15.70;;;3.67;;
83632;SDS011;73595;53.084;6.696;2024-03-17T00:07:39;11.73;;;3.50;;
83632;SDS011;73595;53.084;6.696;2024-03-17T00:10:05;11.63;;;4.28;;
83632;SDS011;73595;53.084;6.696;2024-03-17T00:12:32;12.27;;;3.70;;
83632;SDS011;73595;53.084;6.696;2024-03-17T00:14:58;11.52;;;4.07;;
83632;SDS011;73595;53.084;6.696;2024-03-17T00:17:23;11.25;;;3.97;;
83632;SDS011;73595;53.084;6.696;2024-03-17T00:19:48;12.98;;;3.55;;
83632;SDS011;73595;53.084;6.696;2024-03-17T00:22:13;9.00;;;3.63;;
83632;SDS011;73595;53.084;6.696;2024-03-17T00:24:39;9.55;;;2.97;;
83632;SDS011;73595;53.084;6.696;2024-03-17T00:27:05;12.77;;;4.03;;
83632;SDS011;73595;53.084;6.696;2024-03-17T00:29:31;12.23;;;3.10;;
83632;SDS011;73595;53.084;6.696;2024-03-17T00:31:57;9.75;;;3.58;;
83632;SDS011;73595;53.084;6.696;2024-03-17T00:34:23;10.52;;;3.58;;
83632;SDS011;73595;53.084;6.696;2024-03-17T00:36:48;10.57;;;3.85;;
83632;SDS011;73595;53.084;6.696;2024-03-17T00:39:13;12.88;;;3.20;;
83632;SDS011;73595;53.084;6.696;2024-03-17T00:41:41;15.93;;;3.60;;
83632;SDS011;73595;53.084;6.696;2024-03-17T00:44:07;12.90;;;3.45;;
83632;SDS011;73595;53.084;6.696;2024-03-17T00:46:32;10.90;;;3.53;;
83632;SDS011;73595;53.084;6.696;2024-03-17T00:48:58;9.10;;;3.28;;
83632;SDS011;73595;53.084;6.696;2024-03-17T00:51:25;12.57;;;3.65;;
83632;SDS011;73595;53.084;6.696;2024-03-17T00:53:50;8.68;;;2.80;;
83632;SDS011;73595;53.084;6.696;2024-03-17T00:56:15;8.43;;;3.35;;
83632;SDS011;73595;53.084;6.696;2024-03-17T00:58:41;13.55;;;3.75;;
83632;SDS011;73595;53.084;6.696;2024-03-17T01:01:06;13.60;;;3.03;;
83632;SDS011;73595;53.084;6.696;2024-03-17T01:03:32;15.57;;;3.28;;
83632;SDS011;73595;53.084;6.696;2024-03-17T01:05:57;11.82;;;3.53;;
83632;SDS011;73595;53.084;6.696;2024-03-17T01:08:22;9.55;;;3.20;;
83632;SDS011;73595;53.084;6.696;2024-03-17T01:10:48;13.13;;;2.70;;
83632;SDS011;73595;53.084;6.696;2024-03-17T01:13:17;10.00;;;2.92;;
83632;SDS011;73595;53.084;6.696;2024-03-17T01:15:43;8.85;;;3.13;;
83632;SDS011;73595;53.084;6.696;2024-03-17T01:18:09;14.95;;;4.05;;
83632;SDS011;73595;53.084;6.696;2024-03-17T01:20:35;9.38;;;3.38;;
83632;SDS011;73595;53.084;6.696;2024-03-17T01:23:02;13.63;;;3.50;;
83632;SDS011;73595;53.084;6.696;2024-03-17T01:25:28;7.57;;;2.97;;
83632;SDS011;73595;53.084;6.696;2024-03-17T01:27:54;9.50;;;3.08;;
83632;SDS011;73595;53.084;6.696;2024-03-17T01:30:20;8.43;;;3.20;;
83632;SDS011;73595;53.084;6.696;2024-03-17T01:32:46;11.13;;;2.78;;
83632;SDS011;73595;53.084;6.696;2024-03-17T01:35:11;8.10;;;3.00;;
83632;SDS011;73595;53.084;6.696;2024-03-17T01:37:37;9.18;;;3.00;;
83632;SDS011;73595;53.084;6.696;2024-03-17T01:40:03;9.75;;;2.78;;
83632;SDS011;73595;53.084;6.696;2024-03-17T01:42:33;12.40;;;2.90;;
83632;SDS011;73595;53.084;6.696;2024-03-17T01:44:58;8.82;;;2.80;;
83632;SDS011;73595;53.084;6.696;2024-03-17T01:47:24;9.55;;;3.22;;
83632;SDS011;73595;53.084;6.696;2024-03-17T01:49:50;9.52;;;3.05;;
83632;SDS011;73595;53.084;6.696;2024-03-17T01:52:16;11.75;;;2.60;;
83632;SDS011;73595;53.084;6.696;2024-03-17T01:54:42;14.07;;;3.58;;
83632;SDS011;73595;53.084;6.696;2024-03-17T01:57:08;5.30;;;3.08;;
83632;SDS011;73595;53.084;6.696;2024-03-17T01:59:34;5.95;;;2.70;;
83632;SDS011;73595;53.084;6.696;2024-03-17T02:02:00;10.75;;;3.38;;
83632;SDS011;73595;53.084;6.696;2024-03-17T02:04:26;9.75;;;2.72;;
83632;SDS011;73595;53.084;6.696;2024-03-17T02:06:51;10.30;;;2.42;;
83632;SDS011;73595;53.084;6.696;2024-03-17T02:09:16;6.90;;;2.70;;
83632;SDS011;73595;53.084;6.696;2024-03-17T02:11:43;6.95;;;2.45;;
83632;SDS011;73595;53.084;6.696;2024-03-17T02:14:09;10.23;;;2.63;;
83632;SDS011;73595;53.084;6.696;2024-03-17T02:16:35;7.22;;;2.30;;
83632;SDS011;73595;53.084;6.696;2024-03-17T02:19:01;5.68;;;2.88;;
83632;SDS011;73595;53.084;6.696;2024-03-17T02:21:26;9.13;;;3.05;;
83632;SDS011;73595;53.084;6.696;2024-03-17T02:23:52;5.07;;;2.22;;
83632;SDS011;73595;53.084;6.696;2024-03-17T02:26:19;11.40;;;3.67;;
83632;SDS011;73595;53.084;6.696;2024-03-17T02:28:45;9.93;;;3.30;;
83632;SDS011;73595;53.084;6.696;2024-03-17T02:31:12;9.02;;;3.13;;
83632;SDS011;73595;53.084;6.696;2024-03-17T02:33:39;8.45;;;3.30;;
83632;SDS011;73595;53.084;6.696;2024-03-17T02:36:05;7.57;;;3.25;;
83632;SDS011;73595;53.084;6.696;2024-03-17T02:38:35;9.27;;;3.83;;
83632;SDS011;73595;53.084;6.696;2024-03-17T02:41:19;7.15;;;2.95;;
83632;SDS011;73595;53.084;6.696;2024-03-17T02:43:45;8.23;;;3.30;;
83632;SDS011;73595;53.084;6.696;2024-03-17T02:46:11;7.95;;;3.20;;
83632;SDS011;73595;53.084;6.696;2024-03-17T02:48:38;11.98;;;3.65;;
83632;SDS011;73595;53.084;6.696;2024-03-17T02:51:13;13.25;;;3.67;;
83632;SDS011;73595;53.084;6.696;2024-03-17T02:53:40;8.52;;;2.97;;
83632;SDS011;73595;53.084;6.696;2024-03-17T02:56:06;8.45;;;3.60;;
83632;SDS011;73595;53.084;6.696;2024-03-17T02:58:33;9.35;;;3.15;;
83632;SDS011;73595;53.084;6.696;2024-03-17T03:01:02;10.57;;;3.58;;
83632;SDS011;73595;53.084;6.696;2024-03-17T03:03:29;9.98;;;3.45;;
83632;SDS011;73595;53.084;6.696;2024-03-17T03:05:55;9.85;;;3.50;;
83632;SDS011;73595;53.084;6.696;2024-03-17T03:08:22;10.20;;;3.30;;
83632;SDS011;73595;53.084;6.696;2024-03-17T03:10:47;11.25;;;3.60;;
83632;SDS011;73595;53.084;6.696;2024-03-17T03:13:13;8.32;;;3.55;;
83632;SDS011;73595;53.084;6.696;2024-03-17T03:15:38;8.48;;;3.10;;
83632;SDS011;73595;53.084;6.696;2024-03-17T03:18:03;7.95;;;3.25;;
83632;SDS011;73595;53.084;6.696;2024-03-17T03:20:29;9.20;;;4.03;;
83632;SDS011;73595;53.084;6.696;2024-03-17T03:22:55;10.00;;;3.95;;
83632;SDS011;73595;53.084;6.696;2024-03-17T03:25:21;8.57;;;3.20;;
83632;SDS011;73595;53.084;6.696;2024-03-17T03:27:46;8.52;;;3.67;;
83632;SDS011;73595;53.084;6.696;2024-03-17T03:30:12;8.68;;;2.97;;
83632;SDS011;73595;53.084;6.696;2024-03-17T03:32:37;11.52;;;3.50;;
83632;SDS011;73595;53.084;6.696;2024-03-17T03:35:03;6.38;;;2.97;;
83632;SDS011;73595;53.084;6.696;2024-03-17T03:37:29;6.40;;;2.60;;
83632;SDS011;73595;53.084;6.696;2024-03-17T03:39:55;6.03;;;2.70;;
83632;SDS011;73595;53.084;6.696;2024-03-17T03:42:21;6.93;;;2.70;;
83632;SDS011;73595;53.084;6.696;2024-03-17T03:44:48;7.68;;;2.55;;
83632;SDS011;73595;53.084;6.696;2024-03-17T03:47:14;6.07;;;2.67;;
83632;SDS011;73595;53.084;6.696;2024-03-17T03:49:39;8.95;;;2.55;;
83632;SDS011;73595;53.084;6.696;2024-03-17T03:52:05;6.65;;;2.90;;
83632;SDS011;73595;53.084;6.696;2024-03-17T03:54:30;12.65;;;2.75;;
83632;SDS011;73595;53.084;6.696;2024-03-17T03:56:55;6.53;;;2.88;;
83632;SDS011;73595;53.084;6.696;2024-03-17T03:59:21;6.15;;;2.47;;
83632;SDS011;73595;53.084;6.696;2024-03-17T04:01:46;7.68;;;2.70;;
83632;SDS011;73595;53.084;6.696;2024-03-17T04:04:13;7.68;;;2.70;;
83632;SDS011;73595;53.084;6.696;2024-03-17T04:06:38;6.00;;;2.78;;
83632;SDS011;73595;53.084;6.696;2024-03-17T04:09:03;8.07;;;2.95;;
83632;SDS011;73595;53.084;6.696;2024-03-17T04:11:32;6.60;;;2.60;;
83632;SDS011;73595;53.084;6.696;2024-03-17T04:13:57;7.97;;;2.92;;
83632;SDS011;73595;53.084;6.696;2024-03-17T04:16:25;11.05;;;3.22;;
83632;SDS011;73595;53.084;6.696;2024-03-17T04:18:51;7.43;;;2.78;;
83632;SDS011;73595;53.084;6.696;2024-03-17T04:21:16;6.65;;;2.83;;
83632;SDS011;73595;53.084;6.696;2024-03-17T04:23:41;8.82;;;2.85;;
83632;SDS011;73595;53.084;6.696;2024-03-17T04:26:07;6.85;;;2.78;;
83632;SDS011;73595;53.084;6.696;2024-03-17T04:28:32;8.77;;;3.10;;
83632;SDS011;73595;53.084;6.696;2024-03-17T04:31:07;11.93;;;3.42;;
83632;SDS011;73595;53.084;6.696;2024-03-17T04:33:33;11.13;;;3.53;;
83632;SDS011;73595;53.084;6.696;2024-03-17T04:35:59;12.98;;;3.80;;
83632;SDS011;73595;53.084;6.696;2024-03-17T04:38:27;8.18;;;3.15;;
83632;SDS011;73595;53.084;6.696;2024-03-17T04:40:53;8.30;;;3.72;;
83632;SDS011;73595;53.084;6.696;2024-03-17T04:43:29;12.48;;;4.10;;
83632;SDS011;73595;53.084;6.696;2024-03-17T04:46:03;12.32;;;4.32;;
83632;SDS011;73595;53.084;6.696;2024-03-17T04:48:30;16.27;;;4.05;;
83632;SDS011;73595;53.084;6.696;2024-03-17T04:50:57;10.32;;;3.85;;
83632;SDS011;73595;53.084;6.696;2024-03-17T04:53:23;11.13;;;3.67;;
83632;SDS011;73595;53.084;6.696;2024-03-17T04:55:57;8.35;;;3.90;;
83632;SDS011;73595;53.084;6.696;2024-03-17T04:58:30;13.00;;;4.90;;
83632;SDS011;73595;53.084;6.696;2024-03-17T05:00:55;8.15;;;3.90;;
83632;SDS011;73595;53.084;6.696;2024-03-17T05:03:21;9.15;;;4.43;;
83632;SDS011;73595;53.084;6.696;2024-03-17T05:05:47;10.18;;;4.10;;
83632;SDS011;73595;53.084;6.696;2024-03-17T05:08:12;10.15;;;4.03;;
83632;SDS011;73595;53.084;6.696;2024-03-17T05:10:38;8.73;;;4.45;;
83632;SDS011;73595;53.084;6.696;2024-03-17T05:13:03;11.10;;;4.28;;
83632;SDS011;73595;53.084;6.696;2024-03-17T05:15:28;12.52;;;4.85;;
83632;SDS011;73595;53.084;6.696;2024-03-17T05:17:54;13.38;;;4.60;;
83632;SDS011;73595;53.084;6.696;2024-03-17T05:20:19;7.15;;;4.53;;
83632;SDS011;73595;53.084;6.696;2024-03-17T05:22:46;15.68;;;4.85;;
83632;SDS011;73595;53.084;6.696;2024-03-17T05:25:13;11.35;;;5.47;;
83632;SDS011;73595;53.084;6.696;2024-03-17T05:27:38;14.32;;;6.45;;
83632;SDS011;73595;53.084;6.696;2024-03-17T05:30:03;11.52;;;4.93;;
83632;SDS011;73595;53.084;6.696;2024-03-17T05:32:29;13.77;;;6.05;;
83632;SDS011;73595;53.084;6.696;2024-03-17T05:34:54;13.10;;;6.28;;
83632;SDS011;73595;53.084;6.696;2024-03-17T05:37:20;13.32;;;5.85;;
83632;SDS011;73595;53.084;6.696;2024-03-17T05:39:45;15.13;;;6.82;;
83632;SDS011;73595;53.084;6.696;2024-03-17T05:42:11;12.27;;;6.53;;
83632;SDS011;73595;53.084;6.696;2024-03-17T05:44:37;10.27;;;5.88;;
83632;SDS011;73595;53.084;6.696;2024-03-17T05:47:16;12.93;;;5.88;;
83632;SDS011;73595;53.084;6.696;2024-03-17T05:49:42;16.25;;;6.60;;
83632;SDS011;73595;53.084;6.696;2024-03-17T05:52:07;16.63;;;6.97;;
83632;SDS011;73595;53.084;6.696;2024-03-17T05:54:33;12.38;;;5.15;;
83632;SDS011;73595;53.084;6.696;2024-03-17T05:56:58;14.38;;;5.75;;
83632;SDS011;73595;53.084;6.696;2024-03-17T05:59:24;15.07;;;5.80;;
83632;SDS011;73595;53.084;6.696;2024-03-17T06:01:49;15.55;;;5.43;;
83632;SDS011;73595;53.084;6.696;2024-03-17T06:04:14;17.23;;;5.65;;
83632;SDS011;73595;53.084;6.696;2024-03-17T06:06:42;12.15;;;5.28;;
83632;SDS011;73595;53.084;6.696;2024-03-17T06:09:07;15.38;;;5.57;;
83632;SDS011;73595;53.084;6.696;2024-03-17T06:11:34;12.43;;;5.35;;
83632;SDS011;73595;53.084;6.696;2024-03-17T06:14:00;12.00;;;5.90;;
83632;SDS011;73595;53.084;6.696;2024-03-17T06:16:29;19.95;;;6.82;;
83632;SDS011;73595;53.084;6.696;2024-03-17T06:18:55;12.75;;;5.78;;
83632;SDS011;73595;53.084;6.696;2024-03-17T06:21:21;12.43;;;5.75;;
83632;SDS011;73595;53.084;6.696;2024-03-17T06:23:46;16.35;;;6.13;;
83632;SDS011;73595;53.084;6.696;2024-03-17T06:26:12;10.43;;;5.40;;
83632;SDS011;73595;53.084;6.696;2024-03-17T06:28:37;18.02;;;5.15;;
83632;SDS011;73595;53.084;6.696;2024-03-17T06:31:03;14.27;;;5.70;;
83632;SDS011;73595;53.084;6.696;2024-03-17T06:33:32;11.50;;;5.43;;
83632;SDS011;73595;53.084;6.696;2024-03-17T06:35:58;9.05;;;4.68;;
83632;SDS011;73595;53.084;6.696;2024-03-17T06:38:26;11.32;;;5.22;;
83632;SDS011;73595;53.084;6.696;2024-03-17T06:40:51;12.25;;;5.30;;
83632;SDS011;73595;53.084;6.696;2024-03-17T06:43:18;11.88;;;5.32;;
83632;SDS011;73595;53.084;6.696;2024-03-17T06:45:53;11.48;;;5.18;;
83632;SDS011;73595;53.084;6.696;2024-03-17T06:48:19;8.25;;;4.65;;
83632;SDS011;73595;53.084;6.696;2024-03-17T06:50:44;14.88;;;5.45;;
83632;SDS011;73595;53.084;6.696;2024-03-17T06:53:09;18.13;;;8.95;;
83632;SDS011;73595;53.084;6.696;2024-03-17T06:55:36;14.20;;;9.40;;
83632;SDS011;73595;53.084;6.696;2024-03-17T06:58:01;23.60;;;11.65;;
83632;SDS011;73595;53.084;6.696;2024-03-17T07:00:28;36.63;;;19.52;;
83632;SDS011;73595;53.084;6.696;2024-03-17T07:02:53;33.70;;;18.08;;
83632;SDS011;73595;53.084;6.696;2024-03-17T07:05:19;42.63;;;21.35;;
83632;SDS011;73595;53.084;6.696;2024-03-17T07:07:44;35.17;;;17.70;;
83632;SDS011;73595;53.084;6.696;2024-03-17T07:10:11;18.85;;;10.65;;
83632;SDS011;73595;53.084;6.696;2024-03-17T07:12:37;20.95;;;7.63;;
83632;SDS011;73595;53.084;6.696;2024-03-17T07:15:03;9.05;;;4.82;;
83632;SDS011;73595;53.084;6.696;2024-03-17T07:17:29;10.90;;;4.22;;
83632;SDS011;73595;53.084;6.696;2024-03-17T07:19:55;10.35;;;4.10;;
83632;SDS011;73595;53.084;6.696;2024-03-17T07:22:20;10.18;;;3.88;;
83632;SDS011;73595;53.084;6.696;2024-03-17T07:24:47;10.13;;;3.83;;
83632;SDS011;73595;53.084;6.696;2024-03-17T07:27:14;10.88;;;3.63;;
83632;SDS011;73595;53.084;6.696;2024-03-17T07:29:39;12.93;;;3.67;;
83632;SDS011;73595;53.084;6.696;2024-03-17T07:32:05;9.98;;;3.25;;
83632;SDS011;73595;53.084;6.696;2024-03-17T07:34:31;8.57;;;3.28;;
83632;SDS011;73595;53.084;6.696;2024-03-17T07:36:57;14.07;;;3.38;;
83632;SDS011;73595;53.084;6.696;2024-03-17T07:39:25;11.60;;;3.20;;
83632;SDS011;73595;53.084;6.696;2024-03-17T07:41:55;13.35;;;3.70;;
83632;SDS011;73595;53.084;6.696;2024-03-17T07:44:21;11.63;;;3.30;;
83632;SDS011;73595;53.084;6.696;2024-03-17T07:46:47;16.10;;;4.78;;
83632;SDS011;73595;53.084;6.696;2024-03-17T07:49:13;13.85;;;3.63;;
83632;SDS011;73595;53.084;6.696;2024-03-17T07:51:39;13.80;;;3.60;;
83632;SDS011;73595;53.084;6.696;2024-03-17T07:54:05;13.35;;;3.30;;
83632;SDS011;73595;53.084;6.696;2024-03-17T07:56:30;7.97;;;3.28;;
83632;SDS011;73595;53.084;6.696;2024-03-17T07:58:55;13.07;;;3.95;;
83632;SDS011;73595;53.084;6.696;2024-03-17T08:01:21;12.05;;;3.40;;
83632;SDS011;73595;53.084;6.696;2024-03-17T08:03:47;13.35;;;3.00;;
83632;SDS011;73595;53.084;6.696;2024-03-17T08:06:18;14.13;;;3.13;;
83632;SDS011;73595;53.084;6.696;2024-03-17T08:08:44;9.00;;;2.97;;
83632;SDS011;73595;53.084;6.696;2024-03-17T08:11:09;15.73;;;3.63;;
83632;SDS011;73595;53.084;6.696;2024-03-17T08:13:34;10.00;;;3.22;;
83632;SDS011;73595;53.084;6.696;2024-03-17T08:16:06;12.32;;;3.22;;
83632;SDS011;73595;53.084;6.696;2024-03-17T08:18:34;12.70;;;3.50;;
83632;SDS011;73595;53.084;6.696;2024-03-17T08:21:00;12.50;;;3.33;;
83632;SDS011;73595;53.084;6.696;2024-03-17T08:23:26;10.18;;;2.65;;
83632;SDS011;73595;53.084;6.696;2024-03-17T08:25:55;10.50;;;3.03;;
83632;SDS011;73595;53.084;6.696;2024-03-17T08:28:22;8.50;;;2.67;;
83632;SDS011;73595;53.084;6.696;2024-03-17T08:30:51;11.85;;;2.80;;
83632;SDS011;73595;53.084;6.696;2024-03-17T08:33:18;10.50;;;3.03;;
83632;SDS011;73595;53.084;6.696;2024-03-17T08:35:51;15.55;;;2.85;;
83632;SDS011;73595;53.084;6.696;2024-03-17T08:38:23;10.63;;;3.13;;
83632;SDS011;73595;53.084;6.696;2024-03-17T08:40:50;13.20;;;2.67;;
83632;SDS011;73595;53.084;6.696;2024-03-17T08:43:16;10.80;;;2.95;;
83632;SDS011;73595;53.084;6.696;2024-03-17T08:45:42;12.63;;;3.20;;
83632;SDS011;73595;53.084;6.696;2024-03-17T08:48:08;9.57;;;2.70;;
83632;SDS011;73595;53.084;6.696;2024-03-17T08:50:35;12.48;;;3.42;;
83632;SDS011;73595;53.084;6.696;2024-03-17T08:53:00;15.40;;;3.08;;
83632;SDS011;73595;53.084;6.696;2024-03-17T08:55:26;13.43;;;2.90;;
83632;SDS011;73595;53.084;6.696;2024-03-17T08:57:51;14.25;;;3.42;;
83632;SDS011;73595;53.084;6.696;2024-03-17T09:00:16;7.20;;;3.10;;
83632;SDS011;73595;53.084;6.696;2024-03-17T09:02:42;16.15;;;3.25;;
83632;SDS011;73595;53.084;6.696;2024-03-17T09:05:07;7.90;;;3.25;;
83632;SDS011;73595;53.084;6.696;2024-03-17T09:07:33;13.65;;;3.13;;
83632;SDS011;73595;53.084;6.696;2024-03-17T09:09:58;11.15;;;3.47;;
83632;SDS011;73595;53.084;6.696;2024-03-17T09:12:24;9.73;;;3.30;;
83632;SDS011;73595;53.084;6.696;2024-03-17T09:14:50;13.30;;;3.17;;
83632;SDS011;73595;53.084;6.696;2024-03-17T09:17:16;13.80;;;3.40;;
83632;SDS011;73595;53.084;6.696;2024-03-17T09:19:44;13.98;;;3.75;;
83632;SDS011;73595;53.084;6.696;2024-03-17T09:22:09;8.32;;;2.97;;
83632;SDS011;73595;53.084;6.696;2024-03-17T09:24:35;14.57;;;3.40;;
83632;SDS011;73595;53.084;6.696;2024-03-17T09:27:01;9.70;;;3.20;;
83632;SDS011;73595;53.084;6.696;2024-03-17T09:29:26;15.00;;;4.28;;
83632;SDS011;73595;53.084;6.696;2024-03-17T09:31:51;9.95;;;3.65;;
83632;SDS011;73595;53.084;6.696;2024-03-17T09:34:17;17.10;;;4.63;;
83632;SDS011;73595;53.084;6.696;2024-03-17T09:36:43;10.50;;;3.78;;
83632;SDS011;73595;53.084;6.696;2024-03-17T09:39:09;12.00;;;4.35;;
83632;SDS011;73595;53.084;6.696;2024-03-17T09:41:36;12.68;;;4.28;;
83632;SDS011;73595;53.084;6.696;2024-03-17T09:44:03;9.90;;;4.00;;
83632;SDS011;73595;53.084;6.696;2024-03-17T09:46:31;12.05;;;4.25;;
83632;SDS011;73595;53.084;6.696;2024-03-17T09:48:56;14.45;;;4.57;;
83632;SDS011;73595;53.084;6.696;2024-03-17T09:51:23;12.65;;;4.50;;
83632;SDS011;73595;53.084;6.696;2024-03-17T09:53:50;19.40;;;4.85;;
83632;SDS011;73595;53.084;6.696;2024-03-17T09:56:17;11.90;;;5.00;;
83632;SDS011;73595;53.084;6.696;2024-03-17T09:58:45;13.63;;;4.93;;
83632;SDS011;73595;53.084;6.696;2024-03-17T10:01:11;12.48;;;5.07;;
83632;SDS011;73595;53.084;6.696;2024-03-17T10:03:46;14.43;;;5.25;;
83632;SDS011;73595;53.084;6.696;2024-03-17T10:06:29;17.50;;;5.28;;
83632;SDS011;73595;53.084;6.696;2024-03-17T10:08:56;13.93;;;5.50;;
83632;SDS011;73595;53.084;6.696;2024-03-17T10:11:32;15.20;;;5.57;;
83632;SDS011;73595;53.084;6.696;2024-03-17T10:14:00;11.82;;;5.45;;
83632;SDS011;73595;53.084;6.696;2024-03-17T10:16:28;15.95;;;5.88;;
83632;SDS011;73595;53.084;6.696;2024-03-17T10:21:37;13.05;;;5.70;;
83632;SDS011;73595;53.084;6.696;2024-03-17T10:29:25;14.95;;;5.97;;
83632;SDS011;73595;53.084;6.696;2024-03-17T10:31:55;14.30;;;6.25;;
83632;SDS011;73595;53.084;6.696;2024-03-17T10:34:22;17.23;;;6.35;;
83632;SDS011;73595;53.084;6.696;2024-03-17T10:39:31;12.82;;;5.85;;
83632;SDS011;73595;53.084;6.696;2024-03-17T10:41:58;12.60;;;5.93;;
83632;SDS011;73595;53.084;6.696;2024-03-17T10:44:26;14.02;;;6.47;;
83632;SDS011;73595;53.084;6.696;2024-03-17T10:46:54;17.27;;;6.10;;
83632;SDS011;73595;53.084;6.696;2024-03-17T10:49:26;14.10;;;5.88;;
83632;SDS011;73595;53.084;6.696;2024-03-17T10:54:24;15.73;;;6.50;;
83632;SDS011;73595;53.084;6.696;2024-03-17T10:56:57;15.30;;;6.45;;
83632;SDS011;73595;53.084;6.696;2024-03-17T10:59:38;13.63;;;6.07;;
83632;SDS011;73595;53.084;6.696;2024-03-17T11:02:12;14.50;;;6.38;;
83632;SDS011;73595;53.084;6.696;2024-03-17T11:04:41;16.70;;;6.93;;
83632;SDS011;73595;53.084;6.696;2024-03-17T11:07:08;14.45;;;6.32;;
83632;SDS011;73595;53.084;6.696;2024-03-17T11:09:42;15.13;;;6.70;;
83632;SDS011;73595;53.084;6.696;2024-03-17T11:17:48;14.18;;;6.95;;
83632;SDS011;73595;53.084;6.696;2024-03-17T11:20:19;13.77;;;7.53;;
83632;SDS011;73595;53.084;6.696;2024-03-17T11:22:51;12.35;;;7.40;;
83632;SDS011;73595;53.084;6.696;2024-03-17T11:27:55;13.25;;;7.50;;
83632;SDS011;73595;53.084;6.696;2024-03-17T11:44:15;13.73;;;7.68;;
83632;SDS011;73595;53.084;6.696;2024-03-17T11:46:57;19.70;;;8.18;;
83632;SDS011;73595;53.084;6.696;2024-03-17T11:49:31;11.75;;;7.38;;
83632;SDS011;73595;53.084;6.696;2024-03-17T11:51:58;11.80;;;7.38;;
83632;SDS011;73595;53.084;6.696;2024-03-17T11:54:25;13.35;;;7.43;;
83632;SDS011;73595;53.084;6.696;2024-03-17T11:56:52;11.57;;;7.43;;
83632;SDS011;73595;53.084;6.696;2024-03-17T11:59:18;15.88;;;6.93;;
83632;SDS011;73595;53.084;6.696;2024-03-17T12:01:48;15.43;;;7.38;;
83632;SDS011;73595;53.084;6.696;2024-03-17T12:04:14;14.25;;;7.82;;
83632;SDS011;73595;53.084;6.696;2024-03-17T12:06:47;13.07;;;7.93;;
83632;SDS011;73595;53.084;6.696;2024-03-17T12:09:21;12.93;;;7.38;;
83632;SDS011;73595;53.084;6.696;2024-03-17T12:14:25;10.32;;;7.82;;
83632;SDS011;73595;53.084;6.696;2024-03-17T12:16:51;14.85;;;8.38;;
83632;SDS011;73595;53.084;6.696;2024-03-17T12:19:18;14.60;;;8.25;;
83632;SDS011;73595;53.084;6.696;2024-03-17T12:21:53;16.38;;;9.45;;
83632;SDS011;73595;53.084;6.696;2024-03-17T12:24:23;12.43;;;8.70;;
83632;SDS011;73595;53.084;6.696;2024-03-17T12:26:51;17.17;;;9.10;;
83632;SDS011;73595;53.084;6.696;2024-03-17T12:29:24;13.15;;;8.57;;
83632;SDS011;73595;53.084;6.696;2024-03-17T12:32:05;15.30;;;9.77;;
83632;SDS011;73595;53.084;6.696;2024-03-17T12:34:38;17.33;;;10.20;;
83632;SDS011;73595;53.084;6.696;2024-03-17T12:37:04;17.10;;;9.13;;
83632;SDS011;73595;53.084;6.696;2024-03-17T12:39:33;15.93;;;9.60;;
83632;SDS011;73595;53.084;6.696;2024-03-17T12:42:08;13.60;;;9.60;;
83632;SDS011;73595;53.084;6.696;2024-03-17T12:44:36;15.20;;;9.07;;
83632;SDS011;73595;53.084;6.696;2024-03-17T12:47:08;15.13;;;8.50;;
83632;SDS011;73595;53.084;6.696;2024-03-17T12:49:43;16.90;;;9.23;;
83632;SDS011;73595;53.084;6.696;2024-03-17T12:52:17;17.50;;;9.70;;
83632;SDS011;73595;53.084;6.696;2024-03-17T12:54:44;14.35;;;9.52;;
83632;SDS011;73595;53.084;6.696;2024-03-17T12:57:15;15.35;;;9.65;;
83632;SDS011;73595;53.084;6.696;2024-03-17T12:59:59;16.08;;;9.25;;
83632;SDS011;73595;53.084;6.696;2024-03-17T13:02:43;17.90;;;8.60;;
83632;SDS011;73595;53.084;6.696;2024-03-17T13:07:44;13.82;;;9.00;;
83632;SDS011;73595;53.084;6.696;2024-03-17T13:10:11;18.98;;;9.15;;
83632;SDS011;73595;53.084;6.696;2024-03-17T13:12:47;15.68;;;8.85;;
83632;SDS011;73595;53.084;6.696;2024-03-17T13:15:14;14.07;;;9.25;;
83632;SDS011;73595;53.084;6.696;2024-03-17T13:17:41;12.50;;;8.98;;
83632;SDS011;73595;53.084;6.696;2024-03-17T13:20:08;13.68;;;8.23;;
83632;SDS011;73595;53.084;6.696;2024-03-17T13:22:38;14.98;;;8.00;;
83632;SDS011;73595;53.084;6.696;2024-03-17T13:25:05;12.55;;;7.57;;
83632;SDS011;73595;53.084;6.696;2024-03-17T13:27:33;12.57;;;7.60;;
83632;SDS011;73595;53.084;6.696;2024-03-17T13:29:59;12.73;;;8.57;;
83632;SDS011;73595;53.084;6.696;2024-03-17T13:32:24;10.45;;;7.68;;
83632;SDS011;73595;53.084;6.696;2024-03-17T13:34:49;14.35;;;8.18;;
83632;SDS011;73595;53.084;6.696;2024-03-17T13:37:16;8.82;;;6.82;;
83632;SDS011;73595;53.084;6.696;2024-03-17T13:39:41;11.75;;;7.55;;
83632;SDS011;73595;53.084;6.696;2024-03-17T13:42:07;12.15;;;7.70;;
83632;SDS011;73595;53.084;6.696;2024-03-17T13:44:33;11.85;;;7.50;;
83632;SDS011;73595;53.084;6.696;2024-03-17T13:46:59;11.73;;;7.07;;
83632;SDS011;73595;53.084;6.696;2024-03-17T13:49:27;12.57;;;6.93;;
83632;SDS011;73595;53.084;6.696;2024-03-17T13:51:55;14.80;;;7.60;;
83632;SDS011;73595;53.084;6.696;2024-03-17T13:54:20;14.07;;;7.22;;
83632;SDS011;73595;53.084;6.696;2024-03-17T13:56:49;12.55;;;7.40;;
83632;SDS011;73595;53.084;6.696;2024-03-17T13:59:15;15.23;;;7.40;;
83632;SDS011;73595;53.084;6.696;2024-03-17T14:01:44;11.70;;;7.72;;
83632;SDS011;73595;53.084;6.696;2024-03-17T14:04:12;12.20;;;7.50;;
83632;SDS011;73595;53.084;6.696;2024-03-17T14:06:39;13.60;;;7.47;;
83632;SDS011;73595;53.084;6.696;2024-03-17T14:09:05;11.85;;;7.40;;
83632;SDS011;73595;53.084;6.696;2024-03-17T14:11:37;12.77;;;7.10;;
83632;SDS011;73595;53.084;6.696;2024-03-17T14:14:03;12.13;;;7.40;;
83632;SDS011;73595;53.084;6.696;2024-03-17T14:16:30;11.52;;;7.18;;
83632;SDS011;73595;53.084;6.696;2024-03-17T14:18:58;10.40;;;7.30;;
83632;SDS011;73595;53.084;6.696;2024-03-17T14:21:24;13.48;;;7.53;;
83632;SDS011;73595;53.084;6.696;2024-03-17T14:23:50;13.85;;;7.72;;
83632;SDS011;73595;53.084;6.696;2024-03-17T14:26:16;11.15;;;7.35;;
83632;SDS011;73595;53.084;6.696;2024-03-17T14:28:41;14.50;;;7.65;;
83632;SDS011;73595;53.084;6.696;2024-03-17T14:31:06;10.15;;;7.53;;
83632;SDS011;73595;53.084;6.696;2024-03-17T14:33:32;11.23;;;7.43;;
83632;SDS011;73595;53.084;6.696;2024-03-17T14:35:57;9.35;;;7.20;;
83632;SDS011;73595;53.084;6.696;2024-03-17T14:38:22;10.98;;;6.85;;
83632;SDS011;73595;53.084;6.696;2024-03-17T14:40:50;10.48;;;7.13;;
83632;SDS011;73595;53.084;6.696;2024-03-17T14:43:19;13.35;;;7.80;;
83632;SDS011;73595;53.084;6.696;2024-03-17T14:45:45;10.18;;;6.47;;
83632;SDS011;73595;53.084;6.696;2024-03-17T14:48:11;10.48;;;7.20;;
83632;SDS011;73595;53.084;6.696;2024-03-17T14:50:38;9.55;;;6.57;;
83632;SDS011;73595;53.084;6.696;2024-03-17T14:53:06;11.63;;;7.28;;
83632;SDS011;73595;53.084;6.696;2024-03-17T14:55:31;9.38;;;6.50;;
83632;SDS011;73595;53.084;6.696;2024-03-17T14:57:57;10.40;;;7.40;;
83632;SDS011;73595;53.084;6.696;2024-03-17T15:00:22;10.55;;;7.07;;
83632;SDS011;73595;53.084;6.696;2024-03-17T15:02:50;15.60;;;7.13;;
83632;SDS011;73595;53.084;6.696;2024-03-17T15:05:16;11.27;;;7.53;;
83632;SDS011;73595;53.084;6.696;2024-03-17T15:07:45;13.38;;;7.70;;
83632;SDS011;73595;53.084;6.696;2024-03-17T15:10:10;10.30;;;7.50;;
83632;SDS011;73595;53.084;6.696;2024-03-17T15:12:37;13.77;;;8.00;;
83632;SDS011;73595;53.084;6.696;2024-03-17T15:15:05;11.95;;;7.35;;
83632;SDS011;73595;53.084;6.696;2024-03-17T15:17:33;13.13;;;7.72;;